Time,TemperatureF,DewpointF,PressureIn,WindDirection,WindDirectionDegrees,WindSpeedMPH,WindSpeedGustMPH,Humidity,HourlyPrecipIn,Conditions,Clouds,dailyrainin,SoftwareType,DateUTC
2013-08-20 00:01:00,53.4,51.7,29.94,WNW,292,2.0,2.0,94,0.00,,,0.00,Weather View 32 v70,2013-08-20 08:01:00,
2013-08-20 00:06:00,53.4,51.7,29.93,WNW,292,2.0,2.0,94,0.00,,,0.00,Weather View 32 v70,2013-08-20 08:06:00,
2013-08-20 00:11:00,53.4,51.7,29.93,WNW,292,2.0,2.0,94,0.00,,,0.00,Weather View 32 v70,2013-08-20 08:11:00,
2013-08-20 00:16:00,53.4,51.7,29.93,NW,315,1.0,2.0,94,0.00,,,0.00,Weather View 32 v70,2013-08-20 08:16:00,
2013-08-20 00:21:00,53.2,51.6,29.93,West,270,1.0,2.0,94,0.00,,,0.00,Weather View 32 v70,2013-08-20 08:21:00,
2013-08-20 00:26:00,53.2,51.6,29.94,NNE,22,1.0,2.0,94,0.00,,,0.00,Weather View 32 v70,2013-08-20 08:26:00,
2013-08-20 00:31:00,53.2,51.6,29.94,West,270,0.0,2.0,94,0.00,,,0.00,Weather View 32 v70,2013-08-20 08:31:00,
2013-08-20 00:36:00,53.2,51.6,29.94,South,180,0.0,2.0,94,0.00,,,0.00,Weather View 32 v70,2013-08-20 08:36:00,
2013-08-20 00:41:00,53.4,51.7,29.94,WNW,292,0.0,2.0,94,0.00,,,0.00,Weather View 32 v70,2013-08-20 08:41:00,
2013-08-20 00:46:00,53.2,51.6,29.93,SW,225,0.0,2.0,94,0.00,,,0.00,Weather View 32 v70,2013-08-20 08:46:00,
2013-08-20 00:51:00,53.4,51.7,29.93,South,180,0.0,2.0,94,0.00,,,0.00,Weather View 32 v70,2013-08-20 08:51:00,
2013-08-20 00:56:00,53.4,51.7,29.93,ESE,112,0.0,2.0,94,0.00,,,0.00,Weather View 32 v70,2013-08-20 08:56:00,
2013-08-20 01:01:00,53.2,51.6,29.93,West,270,0.0,2.0,94,0.00,,,0.00,Weather View 32 v70,2013-08-20 09:01:00,
2013-08-20 01:06:00,53.1,51.4,29.94,NW,315,0.0,2.0,94,0.00,,,0.00,Weather View 32 v70,2013-08-20 09:06:00,
2013-08-20 01:11:00,53.1,51.4,29.94,South,180,0.0,2.0,94,0.00,,,0.00,Weather View 32 v70,2013-08-20 09:11:00,
2013-08-20 01:16:00,52.9,51.2,29.94,West,270,1.0,1.0,94,0.00,,,0.00,Weather View 32 v70,2013-08-20 09:16:00,
2013-08-20 01:21:00,52.9,51.2,29.94,SW,225,0.0,1.0,94,0.00,,,0.00,Weather View 32 v70,2013-08-20 09:21:00,
2013-08-20 01:26:00,52.7,51.0,29.93,NNW,338,0.0,1.0,94,0.00,,,0.00,Weather View 32 v70,2013-08-20 09:26:00,
2013-08-20 01:31:00,52.7,51.0,29.93,West,270,1.0,1.0,94,0.00,,,0.00,Weather View 32 v70,2013-08-20 09:31:00,
2013-08-20 01:36:00,52.7,51.0,29.93,WSW,248,1.0,1.0,94,0.00,,,0.00,Weather View 32 v70,2013-08-20 09:36:00,
2013-08-20 01:41:00,52.3,50.7,29.93,WSW,248,1.0,1.0,94,0.00,,,0.00,Weather View 32 v70,2013-08-20 09:41:00,
2013-08-20 01:46:00,52.2,50.5,29.93,WSW,248,1.0,1.0,94,0.00,,,0.00,Weather View 32 v70,2013-08-20 09:46:00,
2013-08-20 01:51:00,52.2,50.5,29.93,West,270,1.0,1.0,94,0.00,,,0.00,Weather View 32 v70,2013-08-20 09:51:00,
2013-08-20 01:56:00,52.0,50.3,29.93,SW,225,1.0,1.0,94,0.00,,,0.00,Weather View 32 v70,2013-08-20 09:56:00,
2013-08-20 02:01:00,51.8,50.1,29.93,West,270,1.0,1.0,94,0.00,,,0.00,Weather View 32 v70,2013-08-20 10:01:00,
2013-08-20 02:06:00,51.6,49.9,29.94,South,180,1.0,1.0,94,0.00,,,0.00,Weather View 32 v70,2013-08-20 10:06:00,
2013-08-20 02:11:00,51.4,49.8,29.94,WSW,248,1.0,1.0,94,0.00,,,0.00,Weather View 32 v70,2013-08-20 10:11:00,
2013-08-20 02:16:00,51.3,49.6,29.94,SSW,202,0.0,1.0,94,0.00,,,0.00,Weather View 32 v70,2013-08-20 10:16:00,
2013-08-20 02:21:00,51.1,49.4,29.94,SE,135,0.0,1.0,94,0.00,,,0.00,Weather View 32 v70,2013-08-20 10:21:00,
2013-08-20 02:26:00,50.7,49.1,29.95,SSE,158,0.0,1.0,94,0.00,,,0.00,Weather View 32 v70,2013-08-20 10:26:00,
2013-08-20 02:31:00,50.7,49.1,29.95,SSE,158,0.0,1.0,94,0.00,,,0.00,Weather View 32 v70,2013-08-20 10:31:00,
2013-08-20 02:36:00,50.7,49.1,29.95,South,180,0.0,1.0,94,0.00,,,0.00,Weather View 32 v70,2013-08-20 10:36:00,
2013-08-20 02:41:00,50.9,49.2,29.95,South,180,0.0,1.0,94,0.00,,,0.00,Weather View 32 v70,2013-08-20 10:41:00,
2013-08-20 02:46:00,50.9,49.2,29.95,South,180,0.0,1.0,94,0.00,,,0.00,Weather View 32 v70,2013-08-20 10:46:00,
2013-08-20 02:51:00,51.3,49.6,29.95,WSW,248,0.0,1.0,94,0.00,,,0.00,Weather View 32 v70,2013-08-20 10:51:00,
2013-08-20 02:56:00,51.3,49.6,29.95,WSW,248,0.0,1.0,94,0.00,,,0.00,Weather View 32 v70,2013-08-20 10:56:00,
2013-08-20 03:01:00,51.3,49.6,29.95,SW,225,0.0,1.0,94,0.00,,,0.00,Weather View 32 v70,2013-08-20 11:01:00,
2013-08-20 03:06:00,51.3,49.6,29.95,WSW,248,0.0,1.0,94,0.00,,,0.00,Weather View 32 v70,2013-08-20 11:06:00,
2013-08-20 03:11:00,51.3,49.6,29.95,WSW,248,0.0,1.0,94,0.00,,,0.00,Weather View 32 v70,2013-08-20 11:11:00,
2013-08-20 03:16:00,51.6,50.2,29.95,South,180,1.0,1.0,95,0.00,,,0.00,Weather View 32 v70,2013-08-20 11:16:00,
2013-08-20 03:21:00,51.4,50.1,29.95,South,180,1.0,1.0,95,0.00,,,0.00,Weather View 32 v70,2013-08-20 11:21:00,
2013-08-20 03:26:00,51.4,50.1,29.96,South,180,1.0,1.0,95,0.00,,,0.00,Weather View 32 v70,2013-08-20 11:26:00,
2013-08-20 03:31:00,51.6,50.2,29.96,West,270,1.0,1.0,95,0.00,,,0.00,Weather View 32 v70,2013-08-20 11:31:00,
2013-08-20 03:36:00,51.6,50.2,29.96,South,180,0.0,1.0,95,0.00,,,0.00,Weather View 32 v70,2013-08-20 11:36:00,
2013-08-20 03:41:00,51.8,50.4,29.96,South,180,0.0,1.0,95,0.00,,,0.00,Weather View 32 v70,2013-08-20 11:41:00,
2013-08-20 03:46:00,51.8,50.4,29.96,SE,135,0.0,1.0,95,0.00,,,0.00,Weather View 32 v70,2013-08-20 11:46:00,
2013-08-20 03:51:00,52.0,50.6,29.96,SW,225,0.0,1.0,95,0.00,,,0.00,Weather View 32 v70,2013-08-20 11:51:00,
2013-08-20 03:56:00,52.0,50.6,29.96,South,180,0.0,1.0,95,0.00,,,0.00,Weather View 32 v70,2013-08-20 11:56:00,
2013-08-20 04:01:00,52.0,50.3,29.96,South,180,0.0,1.0,94,0.00,,,0.00,Weather View 32 v70,2013-08-20 12:01:00,
2013-08-20 04:06:00,52.0,50.3,29.95,SSE,158,0.0,1.0,94,0.00,,,0.00,Weather View 32 v70,2013-08-20 12:06:00,
2013-08-20 04:11:00,52.0,50.3,29.95,SSW,202,0.0,1.0,94,0.00,,,0.00,Weather View 32 v70,2013-08-20 12:11:00,
2013-08-20 04:16:00,52.0,50.3,29.95,NNE,22,0.0,1.0,94,0.00,,,0.00,Weather View 32 v70,2013-08-20 12:16:00,
2013-08-20 04:21:00,52.0,50.3,29.95,South,180,0.0,1.0,94,0.00,,,0.00,Weather View 32 v70,2013-08-20 12:21:00,
2013-08-20 04:26:00,52.0,50.3,29.95,SSE,158,0.0,1.0,94,0.00,,,0.00,Weather View 32 v70,2013-08-20 12:26:00,
2013-08-20 04:31:00,51.8,50.1,29.95,SSE,158,0.0,1.0,94,0.00,,,0.00,Weather View 32 v70,2013-08-20 12:31:00,
2013-08-20 04:36:00,51.8,50.1,29.95,SSE,158,0.0,0.0,94,0.00,,,0.00,Weather View 32 v70,2013-08-20 12:36:00,
2013-08-20 04:41:00,51.8,50.1,29.95,South,180,0.0,0.0,94,0.00,,,0.00,Weather View 32 v70,2013-08-20 12:41:00,
2013-08-20 04:46:00,51.6,49.9,29.95,South,180,0.0,0.0,94,0.00,,,0.00,Weather View 32 v70,2013-08-20 12:46:00,
2013-08-20 04:51:00,51.6,49.9,29.95,West,270,0.0,0.0,94,0.00,,,0.00,Weather View 32 v70,2013-08-20 12:51:00,
2013-08-20 04:56:00,51.6,49.9,29.95,ESE,112,0.0,0.0,94,0.00,,,0.00,Weather View 32 v70,2013-08-20 12:56:00,
2013-08-20 05:01:00,51.6,49.9,29.95,ENE,68,0.0,0.0,94,0.00,,,0.00,Weather View 32 v70,2013-08-20 13:01:00,
2013-08-20 05:06:00,51.6,49.9,29.96,WSW,248,0.0,0.0,94,0.00,,,0.00,Weather View 32 v70,2013-08-20 13:06:00,
2013-08-20 05:11:00,51.6,49.9,29.96,West,270,0.0,0.0,94,0.00,,,0.00,Weather View 32 v70,2013-08-20 13:11:00,
2013-08-20 05:16:00,51.6,49.9,29.96,SSE,158,0.0,0.0,94,0.00,,,0.00,Weather View 32 v70,2013-08-20 13:16:00,
2013-08-20 05:21:00,51.6,49.9,29.96,West,270,0.0,0.0,94,0.00,,,0.00,Weather View 32 v70,2013-08-20 13:21:00,
2013-08-20 05:26:00,51.4,49.8,29.95,West,270,0.0,0.0,94,0.00,,,0.00,Weather View 32 v70,2013-08-20 13:26:00,
2013-08-20 05:31:00,51.4,49.8,29.95,West,270,0.0,0.0,94,0.00,,,0.00,Weather View 32 v70,2013-08-20 13:31:00,
2013-08-20 05:36:00,51.4,49.8,29.95,NNE,22,0.0,0.0,94,0.00,,,0.00,Weather View 32 v70,2013-08-20 13:36:00,
2013-08-20 05:41:00,51.6,49.9,29.95,NNE,22,0.0,0.0,94,0.00,,,0.00,Weather View 32 v70,2013-08-20 13:41:00,
2013-08-20 05:46:00,51.4,49.8,29.94,WSW,248,0.0,0.0,94,0.00,,,0.00,Weather View 32 v70,2013-08-20 13:46:00,
2013-08-20 05:51:00,51.4,50.1,29.94,WSW,248,0.0,0.0,95,0.00,,,0.00,Weather View 32 v70,2013-08-20 13:51:00,
2013-08-20 05:56:00,51.4,49.8,29.94,SSE,158,0.0,0.0,94,0.00,,,0.00,Weather View 32 v70,2013-08-20 13:56:00,
2013-08-20 06:01:00,51.4,49.8,29.94,South,180,0.0,0.0,94,0.00,,,0.00,Weather View 32 v70,2013-08-20 14:01:00,
2013-08-20 06:06:00,51.4,49.8,29.95,SSE,158,0.0,0.0,94,0.00,,,0.00,Weather View 32 v70,2013-08-20 14:06:00,
2013-08-20 06:11:00,51.4,49.8,29.95,SSE,158,0.0,0.0,94,0.00,,,0.00,Weather View 32 v70,2013-08-20 14:11:00,
2013-08-20 06:16:00,51.6,50.2,29.95,SSE,158,0.0,0.0,95,0.00,,,0.00,Weather View 32 v70,2013-08-20 14:16:00,
2013-08-20 06:21:00,51.6,50.2,29.95,NNW,338,0.0,0.0,95,0.00,,,0.00,Weather View 32 v70,2013-08-20 14:21:00,
2013-08-20 06:26:00,51.6,50.2,29.95,West,270,0.0,0.0,95,0.00,,,0.00,Weather View 32 v70,2013-08-20 14:26:00,
2013-08-20 06:31:00,51.4,50.1,29.95,West,270,0.0,0.0,95,0.00,,,0.00,Weather View 32 v70,2013-08-20 14:31:00,
2013-08-20 06:36:00,51.4,50.1,29.95,West,270,0.0,0.0,95,0.00,,,0.00,Weather View 32 v70,2013-08-20 14:36:00,
2013-08-20 06:41:00,51.4,50.1,29.95,West,270,0.0,0.0,95,0.00,,,0.00,Weather View 32 v70,2013-08-20 14:41:00,
2013-08-20 06:46:00,51.4,50.1,29.95,NW,315,0.0,0.0,95,0.00,,,0.00,Weather View 32 v70,2013-08-20 14:46:00,
2013-08-20 06:51:00,51.6,50.2,29.95,WSW,248,0.0,0.0,95,0.00,,,0.00,Weather View 32 v70,2013-08-20 14:51:00,
2013-08-20 06:56:00,51.6,50.2,29.95,West,270,1.0,1.0,95,0.00,,,0.00,Weather View 32 v70,2013-08-20 14:56:00,
2013-08-20 07:01:00,51.4,50.1,29.95,SW,225,1.0,1.0,95,0.00,,,0.00,Weather View 32 v70,2013-08-20 15:01:00,
2013-08-20 07:06:00,51.6,50.2,30.01,South,180,0.0,1.0,95,0.00,,,0.00,Weather View 32 v70,2013-08-20 15:06:00,
2013-08-20 07:11:00,51.6,50.2,30.01,SE,135,0.0,1.0,95,0.00,,,0.00,Weather View 32 v70,2013-08-20 15:11:00,
2013-08-20 07:16:00,51.6,50.2,30.01,ESE,112,0.0,1.0,95,0.00,,,0.00,Weather View 32 v70,2013-08-20 15:16:00,
2013-08-20 07:21:00,51.6,50.2,30.01,SSE,158,0.0,1.0,95,0.00,,,0.00,Weather View 32 v70,2013-08-20 15:21:00,
2013-08-20 07:26:00,51.6,50.2,30.03,SSE,158,0.0,1.0,95,0.00,,,0.00,Weather View 32 v70,2013-08-20 15:26:00,
2013-08-20 07:31:00,51.6,50.2,30.03,SE,135,0.0,1.0,95,0.00,,,0.00,Weather View 32 v70,2013-08-20 15:31:00,
2013-08-20 07:36:00,51.6,50.2,30.03,SSE,158,0.0,1.0,95,0.00,,,0.00,Weather View 32 v70,2013-08-20 15:36:00,
2013-08-20 07:41:00,51.6,50.2,30.03,SSE,158,0.0,1.0,95,0.00,,,0.00,Weather View 32 v70,2013-08-20 15:41:00,
2013-08-20 07:46:00,51.6,50.2,30.04,SSE,158,0.0,1.0,95,0.00,,,0.00,Weather View 32 v70,2013-08-20 15:46:00,
2013-08-20 07:51:00,51.4,50.1,30.04,SE,135,0.0,1.0,95,0.00,,,0.00,Weather View 32 v70,2013-08-20 15:51:00,
2013-08-20 07:56:00,51.6,50.2,30.04,SE,135,0.0,1.0,95,0.00,,,0.00,Weather View 32 v70,2013-08-20 15:56:00,
2013-08-20 08:01:00,51.6,50.2,30.04,SW,225,0.0,1.0,95,0.00,,,0.00,Weather View 32 v70,2013-08-20 16:01:00,
2013-08-20 08:06:00,51.6,50.2,30.04,West,270,0.0,0.0,95,0.00,,,0.00,Weather View 32 v70,2013-08-20 16:06:00,
2013-08-20 08:11:00,52.0,50.6,30.04,West,270,0.0,0.0,95,0.00,,,0.00,Weather View 32 v70,2013-08-20 16:11:00,
2013-08-20 08:16:00,52.0,50.6,30.04,West,270,0.0,0.0,95,0.00,,,0.00,Weather View 32 v70,2013-08-20 16:16:00,
2013-08-20 08:21:00,52.2,50.8,30.04,WSW,248,0.0,0.0,95,0.00,,,0.00,Weather View 32 v70,2013-08-20 16:21:00,
2013-08-20 08:26:00,52.3,50.9,30.05,WSW,248,0.0,0.0,95,0.00,,,0.00,Weather View 32 v70,2013-08-20 16:26:00,
2013-08-20 08:31:00,52.2,50.8,30.05,NW,315,0.0,0.0,95,0.00,,,0.00,Weather View 32 v70,2013-08-20 16:31:00,
2013-08-20 08:36:00,52.3,50.9,30.05,NW,315,0.0,0.0,95,0.00,,,0.00,Weather View 32 v70,2013-08-20 16:36:00,
2013-08-20 08:41:00,52.5,51.1,30.05,SSE,158,0.0,0.0,95,0.00,,,0.00,Weather View 32 v70,2013-08-20 16:41:00,
2013-08-20 08:46:00,52.7,51.0,30.05,WSW,248,0.0,0.0,94,0.00,,,0.00,Weather View 32 v70,2013-08-20 16:46:00,
2013-08-20 08:51:00,52.9,51.2,30.05,WSW,248,0.0,0.0,94,0.00,,,0.00,Weather View 32 v70,2013-08-20 16:51:00,
2013-08-20 08:56:00,53.1,51.4,30.05,WSW,248,1.0,1.0,94,0.00,,,0.00,Weather View 32 v70,2013-08-20 16:56:00,
2013-08-20 09:01:00,52.9,51.2,30.05,South,180,1.0,1.0,94,0.00,,,0.00,Weather View 32 v70,2013-08-20 17:01:00,
2013-08-20 09:06:00,53.1,51.4,30.06,South,180,1.0,1.0,94,0.00,,,0.00,Weather View 32 v70,2013-08-20 17:06:00,
2013-08-20 09:11:00,53.1,51.4,30.06,South,180,1.0,1.0,94,0.00,,,0.00,Weather View 32 v70,2013-08-20 17:11:00,
2013-08-20 09:16:00,53.1,51.1,30.06,South,180,2.0,2.0,93,0.00,,,0.00,Weather View 32 v70,2013-08-20 17:16:00,
2013-08-20 09:21:00,53.4,51.4,30.06,SE,135,1.0,2.0,93,0.00,,,0.00,Weather View 32 v70,2013-08-20 17:21:00,
2013-08-20 09:26:00,53.2,51.3,30.05,South,180,1.0,2.0,93,0.00,,,0.00,Weather View 32 v70,2013-08-20 17:26:00,
2013-08-20 09:31:00,53.6,51.6,30.05,SSE,158,1.0,2.0,93,0.00,,,0.00,Weather View 32 v70,2013-08-20 17:31:00,
2013-08-20 09:36:00,53.8,51.8,30.05,SE,135,1.0,2.0,93,0.00,,,0.00,Weather View 32 v70,2013-08-20 17:36:00,
2013-08-20 09:41:00,54.1,52.2,30.05,West,270,1.0,2.0,93,0.00,,,0.00,Weather View 32 v70,2013-08-20 17:41:00,
2013-08-20 09:46:00,54.3,52.0,30.06,South,180,2.0,2.0,92,0.00,,,0.00,Weather View 32 v70,2013-08-20 17:46:00,
2013-08-20 09:51:00,54.5,52.2,30.06,SSE,158,2.0,2.0,92,0.00,,,0.00,Weather View 32 v70,2013-08-20 17:51:00,
2013-08-20 09:56:00,54.7,52.4,30.06,SSE,158,2.0,2.0,92,0.00,,,0.00,Weather View 32 v70,2013-08-20 17:56:00,
2013-08-20 10:01:00,55.2,52.6,30.06,ENE,68,1.0,2.0,91,0.00,,,0.00,Weather View 32 v70,2013-08-20 18:01:00,
2013-08-20 10:06:00,55.9,53.3,30.06,SSE,158,1.0,2.0,91,0.00,,,0.00,Weather View 32 v70,2013-08-20 18:06:00,
2013-08-20 10:11:00,57.0,53.8,30.06,South,180,1.0,2.0,89,0.00,,,0.00,Weather View 32 v70,2013-08-20 18:11:00,
2013-08-20 10:16:00,57.2,54.0,30.06,NE,45,1.0,2.0,89,0.00,,,0.00,Weather View 32 v70,2013-08-20 18:16:00,
2013-08-20 10:21:00,57.2,53.7,30.06,SSE,158,1.0,2.0,88,0.00,,,0.00,Weather View 32 v70,2013-08-20 18:21:00,
2013-08-20 10:26:00,56.8,53.0,30.04,SSW,202,1.0,2.0,87,0.00,,,0.00,Weather View 32 v70,2013-08-20 18:26:00,
2013-08-20 10:31:00,56.5,53.0,30.04,East,90,1.0,2.0,88,0.00,,,0.00,Weather View 32 v70,2013-08-20 18:31:00,
2013-08-20 10:36:00,56.5,53.3,30.04,ESE,112,1.0,2.0,89,0.03,,,0.00,Weather View 32 v70,2013-08-20 18:36:00,
2013-08-20 10:41:00,56.3,53.1,30.04,South,180,1.0,2.0,89,0.00,,,0.00,Weather View 32 v70,2013-08-20 18:41:00,
2013-08-20 10:46:00,56.1,52.6,30.03,South,180,1.0,2.0,88,0.00,,,0.00,Weather View 32 v70,2013-08-20 18:46:00,
2013-08-20 10:51:00,56.3,53.1,30.03,South,180,1.0,2.0,89,0.00,,,0.00,Weather View 32 v70,2013-08-20 18:51:00,
2013-08-20 10:56:00,56.3,53.1,30.03,SE,135,1.0,2.0,89,0.00,,,0.00,Weather View 32 v70,2013-08-20 18:56:00,
2013-08-20 11:01:00,55.9,52.7,30.03,SSE,158,1.0,2.0,89,0.00,,,0.00,Weather View 32 v70,2013-08-20 19:01:00,
2013-08-20 11:06:00,55.8,52.6,30.04,SSE,158,1.0,1.0,89,0.00,,,0.00,Weather View 32 v70,2013-08-20 19:06:00,
2013-08-20 11:11:00,55.8,52.6,30.04,West,270,1.0,1.0,89,0.00,,,0.00,Weather View 32 v70,2013-08-20 19:11:00,
2013-08-20 11:16:00,55.6,52.4,30.04,ESE,112,1.0,1.0,89,0.00,,,0.00,Weather View 32 v70,2013-08-20 19:16:00,
2013-08-20 11:21:00,55.8,52.6,30.04,South,180,1.0,1.0,89,0.00,,,0.00,Weather View 32 v70,2013-08-20 19:21:00,
2013-08-20 11:26:00,55.8,52.6,30.05,SSE,158,1.0,1.0,89,0.00,,,0.00,Weather View 32 v70,2013-08-20 19:26:00,
2013-08-20 11:31:00,56.3,53.1,30.05,ESE,112,1.0,1.0,89,0.00,,,0.00,Weather View 32 v70,2013-08-20 19:31:00,
2013-08-20 11:36:00,56.5,53.3,30.05,ESE,112,1.0,1.0,89,0.00,,,0.00,Weather View 32 v70,2013-08-20 19:36:00,
2013-08-20 11:41:00,57.0,53.8,30.05,ESE,112,1.0,1.0,89,0.00,,,0.00,Weather View 32 v70,2013-08-20 19:41:00,
2013-08-20 11:46:00,57.0,53.5,30.06,South,180,1.0,1.0,88,0.00,,,0.00,Weather View 32 v70,2013-08-20 19:46:00,
2013-08-20 11:51:00,57.7,53.6,30.06,SE,135,1.0,1.0,86,0.00,,,0.00,Weather View 32 v70,2013-08-20 19:51:00,
2013-08-20 11:56:00,57.9,53.7,30.06,South,180,0.0,1.0,86,0.00,,,0.00,Weather View 32 v70,2013-08-20 19:56:00,
2013-08-20 12:01:00,58.5,54.3,30.06,West,270,1.0,1.0,86,0.00,,,0.00,Weather View 32 v70,2013-08-20 20:01:00,
2013-08-20 12:06:00,58.6,54.1,30.05,West,270,1.0,1.0,85,0.00,,,0.00,Weather View 32 v70,2013-08-20 20:06:00,
2013-08-20 12:11:00,58.6,54.1,30.05,West,270,1.0,1.0,85,0.00,,,0.00,Weather View 32 v70,2013-08-20 20:11:00,
2013-08-20 12:16:00,59.2,54.7,30.05,West,270,1.0,1.0,85,0.00,,,0.00,Weather View 32 v70,2013-08-20 20:16:00,
2013-08-20 12:21:00,59.5,55.0,30.05,West,270,1.0,1.0,85,0.00,,,0.00,Weather View 32 v70,2013-08-20 20:21:00,
2013-08-20 12:26:00,59.5,54.7,30.03,South,180,1.0,1.0,84,0.03,,,0.00,Weather View 32 v70,2013-08-20 20:26:00,
2013-08-20 12:31:00,60.6,55.1,30.03,West,270,1.0,1.0,82,0.03,,,0.00,Weather View 32 v70,2013-08-20 20:31:00,
2013-08-20 12:36:00,60.6,55.1,30.03,WNW,292,1.0,1.0,82,0.00,,,0.00,Weather View 32 v70,2013-08-20 20:36:00,
2013-08-20 12:41:00,61.7,55.5,30.03,South,180,1.0,1.0,80,0.03,,,0.00,Weather View 32 v70,2013-08-20 20:41:00,
2013-08-20 12:46:00,63.0,56.3,30.02,West,270,1.0,1.0,79,0.03,,,0.00,Weather View 32 v70,2013-08-20 20:46:00,
2013-08-20 12:51:00,64.2,55.7,30.02,WNW,292,1.0,1.0,74,0.00,,,0.00,Weather View 32 v70,2013-08-20 20:51:00,
2013-08-20 12:56:00,62.8,54.7,30.02,West,270,2.0,2.0,75,0.00,,,0.00,Weather View 32 v70,2013-08-20 20:56:00,
2013-08-20 13:01:00,62.6,56.0,30.02,SSE,158,2.0,3.0,79,0.00,,,0.00,Weather View 32 v70,2013-08-20 21:01:00,
2013-08-20 13:06:00,63.5,56.1,29.99,NW,315,2.0,3.0,77,0.00,,,0.00,Weather View 32 v70,2013-08-20 21:06:00,
2013-08-20 13:11:00,63.0,55.3,29.99,SE,135,1.0,3.0,76,0.00,,,0.00,Weather View 32 v70,2013-08-20 21:11:00,
2013-08-20 13:16:00,63.9,56.1,29.99,SSW,202,1.0,3.0,76,0.00,,,0.00,Weather View 32 v70,2013-08-20 21:16:00,
2013-08-20 13:21:00,66.6,57.2,29.99,West,270,1.0,3.0,72,0.00,,,0.00,Weather View 32 v70,2013-08-20 21:21:00,
2013-08-20 13:26:00,69.3,57.4,29.98,West,270,1.0,3.0,66,0.00,,,0.00,Weather View 32 v70,2013-08-20 21:26:00,
2013-08-20 13:31:00,71.6,57.8,29.98,NW,315,2.0,3.0,62,0.00,,,0.00,Weather View 32 v70,2013-08-20 21:31:00,
2013-08-20 13:36:00,75.0,59.2,29.98,WNW,292,2.0,3.0,58,0.00,,,0.00,Weather View 32 v70,2013-08-20 21:36:00,
2013-08-20 13:41:00,70.9,56.7,29.98,SW,225,2.0,3.0,61,0.00,,,0.00,Weather View 32 v70,2013-08-20 21:41:00,
2013-08-20 13:46:00,71.1,56.9,29.98,WNW,292,1.0,3.0,61,0.00,,,0.00,Weather View 32 v70,2013-08-20 21:46:00,
2013-08-20 13:51:00,73.4,56.2,29.98,WNW,292,2.0,3.0,55,0.00,,,0.00,Weather View 32 v70,2013-08-20 21:51:00,
2013-08-20 13:56:00,74.8,56.5,29.98,West,270,2.0,3.0,53,0.00,,,0.00,Weather View 32 v70,2013-08-20 21:56:00,
2013-08-20 14:01:00,77.4,58.3,29.98,NW,315,2.0,3.0,52,0.00,,,0.00,Weather View 32 v70,2013-08-20 22:01:00,
2013-08-20 14:06:00,77.9,57.1,30.00,South,180,2.0,2.0,49,0.00,,,0.00,Weather View 32 v70,2013-08-20 22:06:00,
2013-08-20 14:11:00,78.3,56.3,30.00,NNW,338,1.0,2.0,47,0.00,,,0.00,Weather View 32 v70,2013-08-20 22:11:00,
2013-08-20 14:16:00,79.7,57.0,30.00,WNW,292,1.0,2.0,46,0.00,,,0.00,Weather View 32 v70,2013-08-20 22:16:00,
2013-08-20 14:21:00,80.6,56.0,30.00,West,270,2.0,2.0,43,0.00,,,0.00,Weather View 32 v70,2013-08-20 22:21:00,
2013-08-20 14:26:00,78.4,55.3,30.01,South,180,2.0,2.0,45,0.00,,,0.00,Weather View 32 v70,2013-08-20 22:26:00,
2013-08-20 14:31:00,74.5,54.6,30.01,West,270,2.0,2.0,50,0.00,,,0.00,Weather View 32 v70,2013-08-20 22:31:00,
2013-08-20 14:36:00,75.2,54.7,30.01,WNW,292,2.0,2.0,49,0.00,,,0.00,Weather View 32 v70,2013-08-20 22:36:00,
2013-08-20 14:41:00,76.8,55.0,30.01,West,270,2.0,2.0,47,0.00,,,0.00,Weather View 32 v70,2013-08-20 22:41:00,
2013-08-20 14:46:00,79.3,56.7,30.02,West,270,1.0,2.0,46,0.00,,,0.00,Weather View 32 v70,2013-08-20 22:46:00,
2013-08-20 14:51:00,73.6,54.3,30.02,West,270,1.0,2.0,51,0.00,,,0.00,Weather View 32 v70,2013-08-20 22:51:00,
2013-08-20 14:56:00,72.1,54.0,30.02,NW,315,2.0,2.0,53,0.00,,,0.00,Weather View 32 v70,2013-08-20 22:56:00,
2013-08-20 15:01:00,70.3,53.4,30.02,SSE,158,2.0,2.0,55,0.00,,,0.00,Weather View 32 v70,2013-08-20 23:01:00,
2013-08-20 15:06:00,69.3,53.3,30.04,NNE,22,2.0,2.0,57,0.00,,,0.00,Weather View 32 v70,2013-08-20 23:06:00,
2013-08-20 15:11:00,73.6,55.3,30.04,SSE,158,2.0,2.0,53,0.00,,,0.00,Weather View 32 v70,2013-08-20 23:11:00,
2013-08-20 15:16:00,74.8,55.4,30.04,WSW,248,2.0,2.0,51,0.00,,,0.00,Weather View 32 v70,2013-08-20 23:16:00,
2013-08-20 15:21:00,72.1,53.5,30.04,WSW,248,2.0,2.0,52,0.00,,,0.00,Weather View 32 v70,2013-08-20 23:21:00,
2013-08-20 15:26:00,71.2,53.7,30.03,WNW,292,3.0,3.0,54,0.00,,,0.00,Weather View 32 v70,2013-08-20 23:26:00,
2013-08-20 15:31:00,71.8,53.7,30.03,ESE,112,3.0,3.0,53,0.00,,,0.00,Weather View 32 v70,2013-08-20 23:31:00,
2013-08-20 15:36:00,68.9,53.0,30.03,West,270,3.0,3.0,57,0.00,,,0.00,Weather View 32 v70,2013-08-20 23:36:00,
2013-08-20 15:41:00,67.8,53.8,30.03,WNW,292,2.0,3.0,61,0.00,,,0.00,Weather View 32 v70,2013-08-20 23:41:00,
2013-08-20 15:46:00,67.6,53.7,30.03,NNE,22,2.0,3.0,61,0.00,,,0.00,Weather View 32 v70,2013-08-20 23:46:00,
2013-08-20 15:51:00,66.6,53.1,30.03,West,270,3.0,3.0,62,0.00,,,0.00,Weather View 32 v70,2013-08-20 23:51:00,
2013-08-20 15:56:00,66.6,53.5,30.03,SW,225,3.0,3.0,63,0.00,,,0.00,Weather View 32 v70,2013-08-20 23:56:00,
2013-08-20 16:01:00,65.8,52.9,30.03,SW,225,3.0,3.0,63,0.00,,,0.00,Weather View 32 v70,2013-08-21 00:01:00,
2013-08-20 16:06:00,66.0,54.3,30.03,West,270,3.0,3.0,66,0.00,,,0.00,Weather View 32 v70,2013-08-21 00:06:00,
2013-08-20 16:11:00,65.7,54.8,30.03,WNW,292,3.0,3.0,68,0.00,,,0.00,Weather View 32 v70,2013-08-21 00:11:00,
2013-08-20 16:16:00,65.5,54.2,30.03,West,270,3.0,3.0,67,0.00,,,0.00,Weather View 32 v70,2013-08-21 00:16:00,
2013-08-20 16:21:00,65.1,54.7,30.03,West,270,3.0,3.0,69,0.00,,,0.00,Weather View 32 v70,2013-08-21 00:21:00,
2013-08-20 16:26:00,64.6,54.5,30.01,NW,315,3.0,3.0,70,0.00,,,0.00,Weather View 32 v70,2013-08-21 00:26:00,
2013-08-20 16:31:00,64.8,54.7,30.01,West,270,3.0,3.0,70,0.00,,,0.00,Weather View 32 v70,2013-08-21 00:31:00,
2013-08-20 16:36:00,64.8,54.3,30.01,SW,225,3.0,3.0,69,0.00,,,0.00,Weather View 32 v70,2013-08-21 00:36:00,
2013-08-20 16:41:00,64.6,54.5,30.01,West,270,3.0,3.0,70,0.00,,,0.00,Weather View 32 v70,2013-08-21 00:41:00,
2013-08-20 16:46:00,64.4,54.4,30.01,WSW,248,3.0,3.0,70,0.00,,,0.00,Weather View 32 v70,2013-08-21 00:46:00,
2013-08-20 16:51:00,63.9,54.2,30.01,SW,225,2.0,3.0,71,0.00,,,0.00,Weather View 32 v70,2013-08-21 00:51:00,
2013-08-20 16:56:00,63.3,54.1,30.01,SW,225,2.0,3.0,72,0.00,,,0.00,Weather View 32 v70,2013-08-21 00:56:00,
2013-08-20 17:01:00,62.6,53.4,30.01,SW,225,2.0,3.0,72,0.00,,,0.00,Weather View 32 v70,2013-08-21 01:01:00,
2013-08-20 17:06:00,62.2,53.1,30.01,West,270,2.0,3.0,72,0.00,,,0.00,Weather View 32 v70,2013-08-21 01:06:00,
2013-08-20 17:11:00,62.1,53.3,30.01,SW,225,3.0,3.0,73,0.00,,,0.00,Weather View 32 v70,2013-08-21 01:11:00,
2013-08-20 17:16:00,60.8,53.5,30.01,WSW,248,3.0,3.0,77,0.00,,,0.00,Weather View 32 v70,2013-08-21 01:16:00,
2013-08-20 17:19:00,60.6,53.3,30.01,West,270,3.0,3.0,77,0.00,,,0.00,Weather View 32 v70,2013-08-21 01:19:00,
2013-08-20 17:24:00,60.1,53.5,30.01,WSW,248,2.0,3.0,79,0.00,,,0.00,Weather View 32 v70,2013-08-21 01:24:00,
2013-08-20 17:29:00,59.5,53.3,30.00,SW,225,1.0,3.0,80,0.00,,,0.00,Weather View 32 v70,2013-08-21 01:29:00,
2013-08-20 17:34:00,59.5,53.3,30.00,SSE,158,1.0,3.0,80,0.00,,,0.00,Weather View 32 v70,2013-08-21 01:34:00,
2013-08-20 17:39:00,59.5,53.7,30.00,SSW,202,1.0,3.0,81,0.00,,,0.00,Weather View 32 v70,2013-08-21 01:39:00,
2013-08-20 17:44:00,59.5,54.0,30.00,SSE,158,1.0,3.0,82,0.00,,,0.00,Weather View 32 v70,2013-08-21 01:44:00,
2013-08-20 17:49:00,59.2,54.0,30.00,SSE,158,1.0,3.0,83,0.00,,,0.00,Weather View 32 v70,2013-08-21 01:49:00,
2013-08-20 17:54:00,58.8,54.0,30.00,SE,135,1.0,3.0,84,0.00,,,0.00,Weather View 32 v70,2013-08-21 01:54:00,
2013-08-20 17:59:00,58.6,54.1,30.00,South,180,1.0,3.0,85,0.00,,,0.00,Weather View 32 v70,2013-08-21 01:59:00,
2013-08-20 18:04:00,58.3,53.8,30.00,SW,225,1.0,3.0,85,0.00,,,0.00,Weather View 32 v70,2013-08-21 02:04:00,
2013-08-20 18:09:00,57.9,53.7,29.99,SSE,158,1.0,3.0,86,0.00,,,0.00,Weather View 32 v70,2013-08-21 02:09:00,
2013-08-20 18:14:00,58.1,53.9,29.99,SSE,158,0.0,3.0,86,0.00,,,0.00,Weather View 32 v70,2013-08-21 02:14:00,
2013-08-20 18:19:00,58.1,54.2,29.99,South,180,0.0,3.0,87,0.00,,,0.00,Weather View 32 v70,2013-08-21 02:19:00,
2013-08-20 18:24:00,57.9,53.7,29.99,SE,135,0.0,2.0,86,0.00,,,0.00,Weather View 32 v70,2013-08-21 02:24:00,
2013-08-20 18:29:00,58.1,54.2,30.01,South,180,0.0,2.0,87,0.00,,,0.00,Weather View 32 v70,2013-08-21 02:29:00,
2013-08-20 18:34:00,57.9,54.1,30.01,South,180,1.0,1.0,87,0.00,,,0.00,Weather View 32 v70,2013-08-21 02:34:00,
2013-08-20 18:39:00,57.9,54.1,30.01,SW,225,0.0,1.0,87,0.00,,,0.00,Weather View 32 v70,2013-08-21 02:39:00,
2013-08-20 18:44:00,57.9,54.4,30.01,ESE,112,0.0,1.0,88,0.00,,,0.00,Weather View 32 v70,2013-08-21 02:44:00,
2013-08-20 18:49:00,57.7,54.2,30.01,South,180,0.0,1.0,88,0.00,,,0.00,Weather View 32 v70,2013-08-21 02:49:00,
2013-08-20 18:54:00,57.9,54.4,30.01,West,270,0.0,1.0,88,0.00,,,0.00,Weather View 32 v70,2013-08-21 02:54:00,
2013-08-20 18:59:00,57.9,54.4,30.01,South,180,0.0,1.0,88,0.00,,,0.00,Weather View 32 v70,2013-08-21 02:59:00,
2013-08-20 19:04:00,57.9,54.4,30.01,NW,315,0.0,1.0,88,0.00,,,0.00,Weather View 32 v70,2013-08-21 03:04:00,
2013-08-20 19:09:00,57.9,54.4,30.02,NNE,22,0.0,1.0,88,0.00,,,0.00,Weather View 32 v70,2013-08-21 03:09:00,
2013-08-20 19:14:00,58.1,54.6,30.02,ENE,68,0.0,1.0,88,0.00,,,0.00,Weather View 32 v70,2013-08-21 03:14:00,
2013-08-20 19:19:00,58.1,54.6,30.02,ENE,68,0.0,1.0,88,0.00,,,0.00,Weather View 32 v70,2013-08-21 03:19:00,
2013-08-20 19:24:00,58.5,54.9,30.02,SSE,158,0.0,1.0,88,0.00,,,0.00,Weather View 32 v70,2013-08-21 03:24:00,
2013-08-20 19:29:00,58.5,54.9,30.03,NNE,22,0.0,1.0,88,0.00,,,0.00,Weather View 32 v70,2013-08-21 03:29:00,
2013-08-20 19:34:00,58.3,54.7,30.03,NW,315,0.0,1.0,88,0.00,,,0.00,Weather View 32 v70,2013-08-21 03:34:00,
2013-08-20 19:39:00,58.5,54.9,30.03,SE,135,0.0,1.0,88,0.00,,,0.00,Weather View 32 v70,2013-08-21 03:39:00,
2013-08-20 19:44:00,58.5,54.9,30.03,WNW,292,0.0,0.0,88,0.00,,,0.00,Weather View 32 v70,2013-08-21 03:44:00,
2013-08-20 19:49:00,58.5,54.9,30.05,West,270,0.0,0.0,88,0.00,,,0.00,Weather View 32 v70,2013-08-21 03:49:00,
2013-08-20 19:54:00,58.5,54.9,30.05,West,270,0.0,0.0,88,0.00,,,0.00,Weather View 32 v70,2013-08-21 03:54:00,
2013-08-20 19:59:00,58.1,54.9,30.05,SSE,158,0.0,0.0,89,0.00,,,0.00,Weather View 32 v70,2013-08-21 03:59:00,
2013-08-20 20:01:00,58.1,54.9,30.05,SSE,158,0.0,0.0,89,0.00,,,0.00,Weather View 32 v70,2013-08-21 04:01:00,
2013-08-20 20:06:00,58.1,54.9,30.04,SW,225,0.0,0.0,89,0.00,,,0.00,Weather View 32 v70,2013-08-21 04:06:00,
2013-08-20 20:11:00,58.3,55.4,30.04,SSW,202,0.0,0.0,90,0.00,,,0.00,Weather View 32 v70,2013-08-21 04:11:00,
2013-08-20 20:16:00,58.5,55.2,30.04,South,180,0.0,0.0,89,0.00,,,0.00,Weather View 32 v70,2013-08-21 04:16:00,
2013-08-20 20:21:00,58.1,54.6,30.04,SW,225,1.0,1.0,88,0.00,,,0.00,Weather View 32 v70,2013-08-21 04:21:00,
2013-08-20 20:26:00,58.1,54.2,30.05,WSW,248,1.0,1.0,87,0.00,,,0.00,Weather View 32 v70,2013-08-21 04:26:00,
2013-08-20 20:31:00,57.7,53.9,30.05,SSE,158,1.0,1.0,87,0.00,,,0.00,Weather View 32 v70,2013-08-21 04:31:00,
2013-08-20 20:36:00,57.6,53.4,30.05,South,180,1.0,1.0,86,0.00,,,0.00,Weather View 32 v70,2013-08-21 04:36:00,
2013-08-20 20:41:00,57.6,53.4,30.05,West,270,0.0,1.0,86,0.00,,,0.00,Weather View 32 v70,2013-08-21 04:41:00,
2013-08-20 20:46:00,57.4,53.2,30.06,SSE,158,0.0,1.0,86,0.00,,,0.00,Weather View 32 v70,2013-08-21 04:46:00,
2013-08-20 20:51:00,57.4,53.5,30.06,SW,225,0.0,1.0,87,0.00,,,0.00,Weather View 32 v70,2013-08-21 04:51:00,
2013-08-20 20:56:00,57.2,53.4,30.06,West,270,0.0,1.0,87,0.00,,,0.00,Weather View 32 v70,2013-08-21 04:56:00,
2013-08-20 21:01:00,57.2,53.4,30.06,SSW,202,0.0,1.0,87,0.00,,,0.00,Weather View 32 v70,2013-08-21 05:01:00,
2013-08-20 21:06:00,57.0,53.2,30.06,South,180,0.0,1.0,87,0.00,,,0.00,Weather View 32 v70,2013-08-21 05:06:00,
2013-08-20 21:11:00,56.8,53.0,30.06,SE,135,0.0,1.0,87,0.00,,,0.00,Weather View 32 v70,2013-08-21 05:11:00,
2013-08-20 21:16:00,57.0,53.2,30.06,NNW,338,0.0,1.0,87,0.00,,,0.00,Weather View 32 v70,2013-08-21 05:16:00,
2013-08-20 21:21:00,56.7,52.5,30.06,SE,135,1.0,1.0,86,0.00,,,0.00,Weather View 32 v70,2013-08-21 05:21:00,
2013-08-20 21:26:00,56.7,52.5,30.06,SSE,158,1.0,1.0,86,0.00,,,0.00,Weather View 32 v70,2013-08-21 05:26:00,
2013-08-20 21:31:00,56.5,52.0,30.06,SE,135,2.0,2.0,85,0.00,,,0.00,Weather View 32 v70,2013-08-21 05:31:00,
2013-08-20 21:36:00,56.5,52.0,30.06,SSE,158,2.0,2.0,85,0.00,,,0.00,Weather View 32 v70,2013-08-21 05:36:00,
2013-08-20 21:41:00,56.1,51.7,30.06,South,180,2.0,2.0,85,0.00,,,0.00,Weather View 32 v70,2013-08-21 05:41:00,
2013-08-20 21:46:00,55.9,51.5,30.06,SW,225,2.0,2.0,85,0.00,,,0.00,Weather View 32 v70,2013-08-21 05:46:00,
2013-08-20 21:51:00,55.9,51.5,30.06,South,180,2.0,2.0,85,0.00,,,0.00,Weather View 32 v70,2013-08-21 05:51:00,
2013-08-20 21:56:00,55.6,51.1,30.06,SE,135,1.0,2.0,85,0.00,,,0.00,Weather View 32 v70,2013-08-21 05:56:00,
2013-08-20 22:01:00,55.2,50.8,30.06,SE,135,1.0,2.0,85,0.00,,,0.00,Weather View 32 v70,2013-08-21 06:01:00,
2013-08-20 22:06:00,55.0,50.6,30.02,SSE,158,1.0,2.0,85,0.00,,,0.00,Weather View 32 v70,2013-08-21 06:06:00,
2013-08-20 22:11:00,54.9,50.7,30.02,SSE,158,1.0,2.0,86,0.00,,,0.00,Weather View 32 v70,2013-08-21 06:11:00,
2013-08-20 22:16:00,54.5,50.4,30.02,WSW,248,0.0,2.0,86,0.00,,,0.00,Weather View 32 v70,2013-08-21 06:16:00,
2013-08-20 22:21:00,54.5,51.0,30.02,SSE,158,0.0,2.0,88,0.00,,,0.00,Weather View 32 v70,2013-08-21 06:21:00,
2013-08-20 22:26:00,54.1,50.7,30.01,SSE,158,0.0,2.0,88,0.00,,,0.00,Weather View 32 v70,2013-08-21 06:26:00,
2013-08-20 22:31:00,53.8,50.3,30.01,SSE,158,0.0,2.0,88,0.00,,,0.00,Weather View 32 v70,2013-08-21 06:31:00,
2013-08-20 22:36:00,53.8,50.3,30.01,SSE,158,0.0,2.0,88,0.00,,,0.00,Weather View 32 v70,2013-08-21 06:36:00,
2013-08-20 22:41:00,53.8,50.6,30.01,SSE,158,0.0,2.0,89,0.00,,,0.00,Weather View 32 v70,2013-08-21 06:41:00,
2013-08-20 22:46:00,53.6,50.4,30.00,South,180,0.0,2.0,89,0.00,,,0.00,Weather View 32 v70,2013-08-21 06:46:00,
2013-08-20 22:51:00,53.6,50.4,30.00,South,180,0.0,2.0,89,0.00,,,0.00,Weather View 32 v70,2013-08-21 06:51:00,
2013-08-20 23:00:00,53.6,50.4,30.00,WSW,248,0.0,1.0,89,0.00,,,0.00,Weather View 32 v70,2013-08-21 07:00:00,
2013-08-20 23:09:00,53.6,50.4,30.00,West,270,0.0,1.0,89,0.00,,,0.00,Weather View 32 v70,2013-08-21 07:09:00,
2013-08-20 23:15:00,53.6,50.4,30.00,WSW,248,0.0,0.0,89,0.00,,,0.00,Weather View 32 v70,2013-08-21 07:15:00,
2013-08-20 23:25:00,53.6,50.4,30.00,SW,225,0.0,0.0,89,0.00,,,0.00,Weather View 32 v70,2013-08-21 07:25:00,
2013-08-20 23:30:00,53.6,50.4,30.00,South,180,0.0,0.0,89,0.00,,,0.00,Weather View 32 v70,2013-08-21 07:30:00,
2013-08-20 23:40:00,53.8,50.0,30.00,SSE,158,1.0,1.0,87,0.00,,,0.00,Weather View 32 v70,2013-08-21 07:40:00,
2013-08-20 23:45:00,53.8,50.0,30.01,South,180,1.0,1.0,87,0.00,,,0.00,Weather View 32 v70,2013-08-21 07:45:00,
2013-08-20 23:50:00,53.8,50.0,30.01,South,180,1.0,1.0,87,0.00,,,0.00,Weather View 32 v70,2013-08-21 07:50:00,
2013-08-20 23:56:00,53.8,50.0,30.01,SW,225,0.0,1.0,87,0.00,,,0.00,Weather View 32 v70,2013-08-21 07:56:00,